Time;durP1;ratioP1;P1;durP2;ratioP2;P2;SDS_P1;SDS_P2;PMS_P1;PMS_P2;Temp;Humidity;BMP_temperature;BMP_pressure;BME280_temperature;BME280_humidity;BME280_pressure;Samples;Min_cycle;Max_cycle;Signal;HPM_P1;HPM_P2
2022/05/24 00:02:04;;;;;;;4.85;2.67;;;20.10;63.50;;;;;;5012129;28;20037;-73
2022/05/24 00:04:29;;;;;;;3.10;2.33;;;20.10;64.10;;;;;;5008471;28;20030;-73
2022/05/24 00:06:54;;;;;;;3.75;2.40;;;20.10;64.00;;;;;;4994165;28;20076;-73
2022/05/24 00:09:20;;;;;;;5.70;2.13;;;20.10;64.10;;;;;;4992991;28;20394;-73
2022/05/24 00:11:45;;;;;;;4.28;2.67;;;20.10;64.00;;;;;;5009266;28;20022;-75
2022/05/24 00:14:11;;;;;;;3.65;1.85;;;20.10;64.30;;;;;;5011823;28;20030;-75
2022/05/24 00:16:36;;;;;;;4.53;2.50;;;20.00;64.20;;;;;;5010388;28;20018;-75
2022/05/24 00:19:02;;;;;;;3.33;2.42;;;20.00;64.30;;;;;;4993222;28;20042;-74
2022/05/24 00:21:28;;;;;;;4.03;2.40;;;20.00;64.30;;;;;;5008847;28;20528;-75
2022/05/24 00:23:53;;;;;;;3.67;2.45;;;20.00;64.60;;;;;;4996869;28;20038;-75
2022/05/24 00:26:29;;;;;;;3.92;2.42;;;20.00;64.60;;;;;;5007623;28;20553;-75
2022/05/24 00:28:54;;;;;;;4.05;2.30;;;20.00;64.80;;;;;;5004532;28;20026;-75
2022/05/24 00:31:20;;;;;;;5.70;2.88;;;20.00;64.90;;;;;;5010073;28;20060;-75
2022/05/24 00:33:45;;;;;;;4.50;2.80;;;19.90;64.70;;;;;;5011252;28;20092;-75
2022/05/24 00:36:11;;;;;;;3.85;2.75;;;20.00;65.00;;;;;;5010358;28;20500;-75
2022/05/24 00:38:38;;;;;;;3.33;2.20;;;19.90;64.90;;;;;;5006740;28;20022;-75
2022/05/24 00:41:09;;;;;;;3.25;2.03;;;19.90;65.10;;;;;;5004515;28;20034;-74
2022/05/24 00:43:40;;;;;;;4.43;2.72;;;19.90;65.20;;;;;;5009208;28;20482;-74
2022/05/24 00:46:18;;;;;;;4.28;2.58;;;19.90;65.20;;;;;;4997353;28;20038;-74
2022/05/24 00:49:01;;;;;;;3.50;2.28;;;19.90;65.40;;;;;;4992669;28;20424;-75
2022/05/24 00:51:32;;;;;;;3.65;2.20;;;19.90;65.30;;;;;;4993031;28;20097;-75
2022/05/24 00:53:58;;;;;;;3.85;2.53;;;19.90;65.40;;;;;;4997571;28;20025;-74
2022/05/24 00:57:01;;;;;;;4.53;2.33;;;19.90;65.50;;;;;;5009364;28;20032;-74
2022/05/24 00:59:56;;;;;;;4.93;2.50;;;19.80;65.50;;;;;;5000525;28;20145;-74
2022/05/24 01:02:22;;;;;;;3.47;2.40;;;19.80;65.60;;;;;;4987236;28;20046;-74
2022/05/24 01:04:47;;;;;;;3.67;2.40;;;19.80;65.70;;;;;;5003077;28;20042;-74
2022/05/24 01:07:13;;;;;;;5.40;2.72;;;19.90;65.90;;;;;;5011883;28;20109;-73
2022/05/24 01:09:44;;;;;;;5.30;2.60;;;19.80;65.90;;;;;;5000014;28;20398;-74
2022/05/24 01:12:20;;;;;;;3.53;2.25;;;19.90;66.10;;;;;;5001648;28;20030;-74
2022/05/24 01:14:46;;;;;;;4.43;2.50;;;19.80;66.10;;;;;;4990876;28;20042;-74
2022/05/24 01:17:12;;;;;;;5.85;2.33;;;19.80;66.10;;;;;;5006138;28;20037;-74
2022/05/24 01:19:46;;;;;;;5.03;2.70;;;19.80;66.20;;;;;;5010236;28;20031;-74
2022/05/24 01:22:41;;;;;;;4.20;2.25;;;19.80;66.30;;;;;;4992304;28;20047;-74
2022/05/24 01:25:37;;;;;;;4.30;2.70;;;19.80;66.40;;;;;;4994858;28;20029;-74
2022/05/24 01:28:21;;;;;;;3.60;2.58;;;19.80;66.50;;;;;;4991983;28;20034;-74
2022/05/24 01:30:47;;;;;;;3.50;2.67;;;19.80;66.50;;;;;;5003200;28;20148;-74
2022/05/24 01:36:13;;;;;;;5.57;2.60;;;19.80;66.50;;;;;;4995964;28;20029;-74
2022/05/24 01:38:44;;;;;;;4.68;2.72;;;19.80;66.50;;;;;;5009832;28;20034;-74
2022/05/24 01:41:13;;;;;;;5.35;2.60;;;19.80;66.50;;;;;;5000584;28;20105;-74
2022/05/24 01:43:39;;;;;;;4.25;2.38;;;19.80;66.60;;;;;;4996124;28;20061;-74
2022/05/24 01:46:10;;;;;;;6.57;2.97;;;19.80;66.70;;;;;;5007660;28;20054;-74
2022/05/24 01:48:49;;;;;;;4.43;2.72;;;19.80;66.90;;;;;;5011310;28;20396;-74
2022/05/24 01:51:18;;;;;;;3.55;2.45;;;19.80;66.90;;;;;;5002935;28;20501;-74
2022/05/24 01:53:52;;;;;;;4.25;2.25;;;19.80;67.00;;;;;;5015093;28;20121;-74
2022/05/24 01:56:22;;;;;;;3.50;2.20;;;19.80;67.10;;;;;;5001939;28;20482;-75
2022/05/24 01:58:53;;;;;;;3.65;2.92;;;19.80;67.30;;;;;;5014992;28;20053;-75
2022/05/24 02:01:41;;;;;;;4.32;2.38;;;19.80;67.70;;;;;;5002898;28;20026;-74
2022/05/24 02:04:07;;;;;;;3.88;2.72;;;19.80;67.70;;;;;;5011410;28;20133;-75
2022/05/24 02:06:33;;;;;;;3.63;2.55;;;19.80;68.00;;;;;;5000481;28;20109;-75
2022/05/24 02:08:59;;;;;;;4.65;2.40;;;19.80;68.30;;;;;;4993933;28;20073;-75
2022/05/24 02:11:27;;;;;;;7.80;2.80;;;19.80;68.40;;;;;;4996580;28;20034;-76
2022/05/24 02:14:22;;;;;;;4.32;2.70;;;19.80;68.80;;;;;;5014407;28;20392;-75
2022/05/24 02:16:54;;;;;;;5.07;3.05;;;19.80;68.80;;;;;;5000187;28;20555;-75
2022/05/24 02:19:20;;;;;;;3.92;2.80;;;19.80;69.20;;;;;;5010572;28;20117;-75
2022/05/24 02:21:51;;;;;;;4.50;2.45;;;19.70;69.40;;;;;;4999642;28;20085;-74
2022/05/24 02:24:20;;;;;;;5.43;2.55;;;19.70;70.00;;;;;;5010594;28;20034;-75
2022/05/24 02:26:47;;;;;;;3.58;2.53;;;19.70;70.30;;;;;;5012673;28;20026;-77
2022/05/24 02:29:12;;;;;;;6.65;2.55;;;19.70;70.50;;;;;;5014015;28;20466;-75
2022/05/24 02:31:38;;;;;;;8.45;2.70;;;19.70;70.90;;;;;;5012141;28;20076;-74
2022/05/24 02:34:04;;;;;;;7.13;3.28;;;19.70;71.10;;;;;;4998655;28;20504;-74
2022/05/24 02:36:29;;;;;;;5.13;3.00;;;19.70;71.50;;;;;;4998698;28;20512;-74
2022/05/24 02:38:55;;;;;;;5.80;3.10;;;19.60;71.60;;;;;;5002233;28;20381;-75
2022/05/24 02:41:31;;;;;;;5.35;2.90;;;19.60;71.70;;;;;;5009811;28;20062;-74
2022/05/24 02:43:59;;;;;;;5.15;3.10;;;19.60;72.00;;;;;;5000781;28;20030;-74
2022/05/24 02:46:24;;;;;;;6.72;3.28;;;19.60;72.20;;;;;;5007346;28;20113;-74
2022/05/24 02:48:50;;;;;;;4.55;2.90;;;19.60;72.40;;;;;;5003038;28;20553;-74
2022/05/24 02:51:16;;;;;;;5.28;2.75;;;19.60;72.40;;;;;;5001908;28;20029;-74
2022/05/24 02:53:43;;;;;;;5.78;3.10;;;19.60;72.50;;;;;;5011373;28;20037;-75
2022/05/24 02:56:10;;;;;;;5.13;3.15;;;19.60;72.60;;;;;;5031264;28;20517;-75
2022/05/24 02:58:35;;;;;;;7.20;3.50;;;19.60;72.50;;;;;;5006918;28;20030;-75
2022/05/24 03:01:01;;;;;;;5.68;2.63;;;19.60;72.50;;;;;;4994015;28;20022;-75
2022/05/24 03:03:27;;;;;;;4.30;2.80;;;19.60;72.50;;;;;;5008138;28;20042;-74
2022/05/24 03:05:53;;;;;;;4.88;2.78;;;19.60;72.60;;;;;;4996394;28;20032;-75
2022/05/24 03:11:03;;;;;;;4.32;2.88;;;19.60;72.70;;;;;;4993810;28;20501;-74
2022/05/24 03:16:14;;;;;;;3.85;3.25;;;19.60;73.40;;;;;;5010066;28;20076;-74
2022/05/24 03:18:41;;;;;;;5.50;3.25;;;19.60;73.90;;;;;;5012307;28;20257;-74
2022/05/24 03:21:07;;;;;;;3.45;2.72;;;19.60;74.60;;;;;;4993601;28;20038;-74
2022/05/24 03:23:33;;;;;;;5.57;3.38;;;19.50;74.90;;;;;;5012868;28;20084;-74
2022/05/24 03:25:59;;;;;;;6.97;3.10;;;19.50;75.40;;;;;;4994057;28;20034;-73
2022/05/24 03:28:25;;;;;;;5.57;3.40;;;19.50;75.60;;;;;;4993855;28;20117;-73
2022/05/24 03:30:50;;;;;;;5.20;3.33;;;19.50;76.10;;;;;;5007209;28;20037;-73
2022/05/24 03:33:16;;;;;;;28.15;5.05;;;19.50;76.50;;;;;;4996675;28;20034;-73
2022/05/24 03:35:42;;;;;;;5.00;3.35;;;19.50;76.70;;;;;;4993859;28;20026;-72
2022/05/24 03:38:08;;;;;;;4.32;3.40;;;19.50;77.10;;;;;;4995829;28;20541;-73
2022/05/24 03:40:34;;;;;;;3.70;2.92;;;19.40;77.20;;;;;;4993485;28;20041;-73
2022/05/24 03:43:01;;;;;;;4.40;3.45;;;19.40;77.50;;;;;;4996705;28;20046;-72
2022/05/24 03:45:27;;;;;;;10.93;3.65;;;19.40;77.60;;;;;;4993443;28;20027;-72
2022/05/24 03:47:53;;;;;;;5.82;3.55;;;19.40;77.70;;;;;;5008298;28;20037;-73
2022/05/24 03:50:19;;;;;;;4.07;3.10;;;19.40;78.00;;;;;;4994249;28;20070;-72
2022/05/24 03:52:45;;;;;;;5.10;3.38;;;19.40;78.00;;;;;;5001891;28;20489;-72
2022/05/24 03:55:11;;;;;;;4.45;3.08;;;19.40;78.20;;;;;;5006699;28;20033;-72
2022/05/24 04:00:23;;;;;;;6.07;3.03;;;19.40;78.50;;;;;;5007066;28;20061;-72
2022/05/24 04:02:48;;;;;;;5.75;2.95;;;19.40;78.70;;;;;;5006255;28;20091;-73
2022/05/24 04:05:14;;;;;;;6.25;3.47;;;19.40;79.00;;;;;;4999081;28;20142;-73
2022/05/24 04:07:40;;;;;;;4.72;3.35;;;19.40;79.40;;;;;;5011141;28;20038;-75
2022/05/24 04:10:09;;;;;;;5.53;3.30;;;19.40;79.60;;;;;;4998599;28;20045;-73
2022/05/24 04:12:35;;;;;;;4.10;3.22;;;19.50;80.30;;;;;;4998836;28;20041;-73
2022/05/24 04:15:01;;;;;;;6.30;3.75;;;19.40;81.10;;;;;;4999357;28;20026;-73
2022/05/24 04:17:26;;;;;;;6.25;3.70;;;19.40;82.10;;;;;;4992285;28;20030;-74
2022/05/24 04:19:52;;;;;;;7.25;4.13;;;19.40;83.40;;;;;;5006546;28;20061;-72
2022/05/24 04:22:17;;;;;;;5.63;3.75;;;19.30;84.90;;;;;;5010081;28;20245;-72
2022/05/24 04:24:43;;;;;;;5.70;4.15;;;19.30;85.60;;;;;;5011773;28;20180;-72
2022/05/24 04:27:08;;;;;;;7.13;4.13;;;19.20;86.70;;;;;;5004707;28;20146;-72
2022/05/24 04:29:34;;;;;;;7.95;4.10;;;19.20;87.60;;;;;;4992770;28;20026;-72
2022/05/24 04:31:59;;;;;;;7.85;4.40;;;19.20;88.50;;;;;;5002747;28;20655;-71
2022/05/24 04:34:25;;;;;;;5.88;4.00;;;19.10;89.50;;;;;;5012062;28;20064;-71
2022/05/24 04:36:50;;;;;;;11.80;4.53;;;19.10;90.10;;;;;;5006559;28;20044;-72
2022/05/24 04:39:17;;;;;;;5.15;4.00;;;19.10;90.60;;;;;;5011689;28;20421;-72
2022/05/24 04:44:27;;;;;;;5.93;4.35;;;19.10;91.30;;;;;;5012199;28;20042;-71
2022/05/24 04:47:08;;;;;;;6.57;4.50;;;19.10;91.60;;;;;;5005425;28;20026;-72
2022/05/24 04:49:38;;;;;;;6.55;4.75;;;19.10;92.00;;;;;;4997990;28;20053;-71
2022/05/24 04:52:06;;;;;;;6.53;4.47;;;19.10;92.40;;;;;;4994026;28;20034;-72
2022/05/24 04:54:32;;;;;;;5.95;4.55;;;19.10;92.70;;;;;;4993482;28;20050;-72
2022/05/24 04:56:57;;;;;;;6.15;4.32;;;19.10;92.90;;;;;;4998522;28;20108;-72
2022/05/24 04:59:23;;;;;;;5.47;4.40;;;19.10;93.30;;;;;;5002851;28;20034;-72
2022/05/24 05:01:52;;;;;;;7.15;5.03;;;19.10;93.60;;;;;;4993520;28;20042;-74
2022/05/24 05:04:23;;;;;;;7.47;5.18;;;19.10;93.80;;;;;;4997224;28;20105;-74
2022/05/24 05:06:48;;;;;;;6.35;5.10;;;19.10;94.20;;;;;;5009145;28;20037;-74
2022/05/24 05:09:15;;;;;;;7.88;5.00;;;19.10;94.30;;;;;;5011578;28;20073;-75
2022/05/24 05:11:41;;;;;;;6.28;5.18;;;19.10;94.50;;;;;;5014490;28;20057;-74
2022/05/24 05:14:08;;;;;;;6.95;5.10;;;19.10;94.80;;;;;;4996527;28;20081;-74
2022/05/24 05:16:33;;;;;;;7.95;5.50;;;19.10;95.10;;;;;;5011744;28;20065;-74
2022/05/24 05:18:59;;;;;;;6.40;5.43;;;19.20;95.30;;;;;;4995065;28;20124;-74
2022/05/24 05:21:32;;;;;;;8.45;5.32;;;19.20;95.50;;;;;;4996587;28;20508;-74
2022/05/24 05:23:59;;;;;;;7.28;5.47;;;19.20;95.60;;;;;;4997048;28;20197;-74
2022/05/24 05:26:24;;;;;;;8.75;5.18;;;19.20;95.70;;;;;;4998267;28;20500;-74
2022/05/24 05:28:51;;;;;;;6.57;5.25;;;19.20;95.80;;;;;;4997917;28;20062;-75
2022/05/24 05:31:19;;;;;;;6.55;5.15;;;19.20;95.90;;;;;;4996547;28;20035;-73
2022/05/24 05:33:47;;;;;;;8.38;5.97;;;19.20;95.90;;;;;;5015612;28;20045;-72
2022/05/24 05:36:14;;;;;;;5.82;5.18;;;19.20;96.10;;;;;;5005643;28;20065;-73
2022/05/24 05:38:48;;;;;;;6.93;4.80;;;19.20;96.00;;;;;;5014654;28;20108;-72
2022/05/24 05:41:15;;;;;;;;;;;19.20;96.20;;;;;;5003740;28;20053;-73
2022/05/24 05:43:42;;;;;;;6.18;4.97;;;19.20;95.40;;;;;;5006278;28;20356;-73
2022/05/24 05:46:07;;;;;;;6.43;4.90;;;19.10;95.80;;;;;;4995833;28;20114;-73
2022/05/24 05:48:34;;;;;;;7.13;5.13;;;19.10;96.00;;;;;;5008692;28;20534;-73
2022/05/24 05:51:00;;;;;;;7.20;5.35;;;19.10;96.20;;;;;;4995505;28;20117;-72
2022/05/24 05:53:26;;;;;;;5.28;4.78;;;19.20;96.30;;;;;;5006426;28;20029;-71
2022/05/24 05:55:51;;;;;;;7.43;5.07;;;19.20;96.30;;;;;;5015005;28;20122;-74
2022/05/24 05:58:17;;;;;;;6.45;5.47;;;19.20;96.30;;;;;;5012374;28;20041;-75
2022/05/24 06:00:42;;;;;;;7.32;5.53;;;19.20;96.30;;;;;;5014178;28;20026;-81
2022/05/24 06:03:08;;;;;;;6.90;5.55;;;19.20;96.20;;;;;;4995522;28;20038;-74
2022/05/24 06:05:34;;;;;;;6.68;5.20;;;19.20;96.30;;;;;;4995387;28;20045;-74
2022/05/24 06:08:01;;;;;;;5.43;4.90;;;19.20;96.40;;;;;;5010242;28;20084;-74
2022/05/24 06:10:29;;;;;;;7.85;5.78;;;19.20;96.30;;;;;;5001471;28;20374;-74
2022/05/24 06:12:56;;;;;;;8.70;5.85;;;19.20;96.30;;;;;;5013119;28;20064;-74
2022/05/24 06:15:21;;;;;;;6.10;5.47;;;19.30;96.30;;;;;;5008377;28;20053;-73
2022/05/24 06:17:49;;;;;;;6.55;5.47;;;19.30;96.20;;;;;;5000333;28;20058;-72
2022/05/24 06:20:16;;;;;;;6.25;5.50;;;19.30;96.20;;;;;;5001651;28;20029;-71
2022/05/24 06:22:42;;;;;;;6.15;5.07;;;19.30;96.20;;;;;;5005313;28;20042;-72
2022/05/24 06:25:08;;;;;;;7.05;5.35;;;19.50;96.00;;;;;;5013224;28;20033;-71
2022/05/24 06:27:34;;;;;;;8.15;5.05;;;19.50;96.00;;;;;;5012377;28;20030;-70
2022/05/24 06:29:59;;;;;;;6.43;5.20;;;19.60;95.90;;;;;;4997959;28;20033;-70
2022/05/24 06:32:25;;;;;;;5.50;4.97;;;19.60;95.80;;;;;;4999087;28;20482;-70
2022/05/24 06:34:52;;;;;;;7.47;5.28;;;19.60;95.70;;;;;;4999901;28;20489;-70
2022/05/24 06:37:19;;;;;;;6.53;5.00;;;19.70;95.70;;;;;;5005954;28;20058;-70
2022/05/24 06:39:45;;;;;;;7.30;4.20;;;19.70;95.60;;;;;;5013199;28;20030;-69
2022/05/24 06:42:11;;;;;;;6.45;4.63;;;19.80;95.40;;;;;;5006875;28;20057;-70
2022/05/24 06:44:36;;;;;;;6.03;4.50;;;19.80;95.40;;;;;;4994428;28;20030;-68
2022/05/24 06:47:02;;;;;;;8.80;4.70;;;19.90;95.50;;;;;;4997975;28;20057;-70
2022/05/24 06:49:28;;;;;;;6.03;4.47;;;20.00;95.40;;;;;;5008118;28;20184;-70
2022/05/24 06:51:53;;;;;;;6.32;4.88;;;20.00;95.20;;;;;;5008319;28;20037;-70
2022/05/24 06:54:19;;;;;;;6.05;4.60;;;20.10;95.20;;;;;;5011937;28;20029;-70
2022/05/24 06:56:44;;;;;;;5.68;4.25;;;20.10;95.00;;;;;;5010904;28;20057;-70
2022/05/24 07:04:38;;;;;;;5.17;4.03;;;20.40;94.60;;;;;;5012193;28;20485;-69
2022/05/24 07:07:04;;;;;;;7.35;5.00;;;20.40;94.70;;;;;;5006294;28;20396;-69
2022/05/24 07:09:31;;;;;;;4.20;3.38;;;20.50;94.40;;;;;;5003150;28;20112;-70
2022/05/24 07:11:58;;;;;;;5.07;3.70;;;20.60;94.10;;;;;;5010009;28;20030;-70
2022/05/24 07:14:23;;;;;;;5.32;3.42;;;20.60;93.70;;;;;;5005128;28;20026;-70
2022/05/24 07:16:48;;;;;;;4.20;3.45;;;20.70;93.60;;;;;;4998142;28;20440;-70
2022/05/24 07:19:14;;;;;;;5.18;4.00;;;20.80;93.80;;;;;;5012181;28;20018;-71
2022/05/24 07:21:39;;;;;;;4.13;3.55;;;20.90;93.70;;;;;;5006554;28;20446;-71
2022/05/24 07:24:05;;;;;;;6.43;4.00;;;21.00;93.60;;;;;;4999357;28;20029;-70
2022/05/24 07:26:31;;;;;;;5.07;3.80;;;21.20;93.40;;;;;;5011431;28;20531;-70
2022/05/24 07:28:56;;;;;;;4.75;3.67;;;21.30;92.90;;;;;;5001016;28;20067;-70
2022/05/24 07:31:22;;;;;;;4.30;3.28;;;21.30;92.70;;;;;;5011886;28;20058;-70
2022/05/24 07:33:47;;;;;;;4.88;3.47;;;21.40;92.60;;;;;;5009422;28;20062;-70
2022/05/24 07:36:13;;;;;;;4.88;2.85;;;21.50;92.50;;;;;;5010424;28;20038;-71
2022/05/24 07:38:39;;;;;;;5.38;3.53;;;21.60;92.10;;;;;;5006728;28;20481;-70
2022/05/24 07:46:33;;;;;;;4.10;3.05;;;21.80;91.60;;;;;;4994583;28;20084;-70
2022/05/24 07:48:59;;;;;;;5.53;3.08;;;21.80;91.60;;;;;;4994516;28;20030;-70
2022/05/24 07:51:25;;;;;;;4.82;3.05;;;21.90;91.40;;;;;;5002881;28;20025;-69
2022/05/24 07:53:50;;;;;;;6.00;3.08;;;21.90;91.00;;;;;;5006168;28;20511;-70
2022/05/24 07:56:18;;;;;;;3.58;2.67;;;21.90;90.80;;;;;;5010695;28;20087;-70
2022/05/24 07:58:44;;;;;;;6.07;3.03;;;21.90;90.80;;;;;;4992820;28;20023;-71
2022/05/24 08:01:10;;;;;;;4.95;3.17;;;21.90;90.70;;;;;;4993311;28;20034;-71
2022/05/24 08:03:38;;;;;;;5.50;2.80;;;22.00;90.60;;;;;;4993146;28;20048;-70
2022/05/24 08:06:04;;;;;;;3.95;2.85;;;22.00;90.70;;;;;;5011801;28;20539;-71
2022/05/24 08:08:29;;;;;;;3.90;2.55;;;22.10;90.50;;;;;;4992944;28;20034;-71
2022/05/24 08:10:55;;;;;;;3.67;2.50;;;22.10;90.10;;;;;;5012082;28;20033;-71
2022/05/24 08:13:21;;;;;;;3.33;2.58;;;22.20;89.50;;;;;;5006898;28;20018;-71
2022/05/24 08:15:50;;;;;;;4.43;2.83;;;22.30;89.70;;;;;;5005817;28;20030;-71
2022/05/24 08:18:15;;;;;;;3.53;2.72;;;22.40;89.40;;;;;;4993461;28;20038;-71
2022/05/24 08:20:41;;;;;;;5.50;2.97;;;22.40;88.80;;;;;;4991643;28;20037;-72
2022/05/24 08:23:06;;;;;;;3.25;2.65;;;22.40;88.70;;;;;;5008584;28;20048;-72
2022/05/24 08:25:33;;;;;;;4.43;2.72;;;22.40;88.00;;;;;;5010682;28;20077;-71
2022/05/24 08:28:02;;;;;;;3.38;2.45;;;22.40;87.70;;;;;;4998450;28;20058;-71
2022/05/24 08:30:29;;;;;;;4.50;2.95;;;22.40;87.40;;;;;;4991932;28;20101;-71
2022/05/24 08:32:56;;;;;;;3.10;2.67;;;22.20;87.00;;;;;;5006147;28;20029;-72
2022/05/24 08:35:22;;;;;;;4.00;2.85;;;22.20;87.10;;;;;;5011389;28;20033;-71
2022/05/24 08:37:48;;;;;;;4.82;2.80;;;22.00;86.60;;;;;;5010758;28;20033;-71
2022/05/24 08:40:17;;;;;;;4.30;2.35;;;21.90;86.80;;;;;;4997895;28;20076;-71
2022/05/24 08:43:14;;;;;;;3.55;2.60;;;21.80;87.10;;;;;;5003021;28;20072;-72
2022/05/24 08:49:09;;;;;;;3.40;2.50;;;21.60;87.30;;;;;;4992709;28;20122;-71
2022/05/24 08:51:51;;;;;;;5.03;2.60;;;21.60;87.30;;;;;;4995105;28;20038;-70
2022/05/24 08:54:20;;;;;;;3.58;2.28;;;21.50;87.20;;;;;;5004451;28;20023;-70
2022/05/24 08:56:52;;;;;;;3.70;2.40;;;21.50;87.20;;;;;;4997163;28;20075;-71
2022/05/24 08:59:28;;;;;;;3.63;2.50;;;21.40;87.30;;;;;;5007643;28;20026;-71
2022/05/24 09:01:56;;;;;;;3.42;2.03;;;21.40;87.00;;;;;;4996807;28;20080;-71
2022/05/24 09:04:22;;;;;;;5.18;2.53;;;21.40;87.30;;;;;;5007737;28;20153;-71
2022/05/24 09:06:51;;;;;;;3.30;2.40;;;21.50;87.50;;;;;;4997941;28;20064;-71
2022/05/24 09:09:40;;;;;;;3.78;2.40;;;21.60;87.40;;;;;;5010262;28;20042;-71
2022/05/24 09:12:39;;;;;;;4.93;2.38;;;21.70;86.90;;;;;;5006296;28;20027;-69
2022/05/24 09:15:13;;;;;;;6.40;2.80;;;21.90;86.80;;;;;;5008397;28;20372;-71
2022/05/24 09:17:48;;;;;;;;;;;22.00;86.50;;;;;;5011400;28;20041;-71
2022/05/24 09:20:32;;;;;;;3.78;2.25;;;22.10;86.90;;;;;;5010670;28;19956;-71
2022/05/24 09:23:01;;;;;;;;;;;22.20;85.90;;;;;;5007781;28;20113;-71
2022/05/24 09:25:26;;;;;;;3.25;1.77;;;22.30;86.00;;;;;;4998092;28;20369;-71
2022/05/24 09:27:54;;;;;;;2.80;1.83;;;22.30;85.10;;;;;;5007382;28;20026;-71
2022/05/24 09:30:25;;;;;;;4.70;2.40;;;22.40;85.20;;;;;;5018150;28;20308;-71
2022/05/24 09:32:50;;;;;;;3.60;2.00;;;22.50;84.60;;;;;;5001050;28;20026;-71
2022/05/24 09:35:16;;;;;;;3.95;1.80;;;22.60;84.10;;;;;;5014444;28;20092;-71
2022/05/24 09:37:45;;;;;;;3.08;1.98;;;22.70;83.70;;;;;;5003429;28;20034;-76
2022/05/24 09:40:23;;;;;;;3.20;1.75;;;22.90;82.40;;;;;;5010786;28;22510;-70
2022/05/24 09:42:50;;;;;;;4.00;1.60;;;23.00;81.40;;;;;;5020119;28;20029;-69
2022/05/24 09:45:18;;;;;;;8.63;2.13;;;23.10;80.40;;;;;;5015953;28;20457;-69
2022/05/24 09:47:44;;;;;;;3.40;1.83;;;23.10;79.30;;;;;;5001969;28;20398;-70
2022/05/24 09:50:22;;;;;;;2.38;1.30;;;23.20;79.50;;;;;;5009577;28;20061;-70
2022/05/24 09:53:06;;;;;;;2.80;1.45;;;23.20;79.50;;;;;;5008589;28;20653;-70
2022/05/24 09:55:55;;;;;;;2.33;1.50;;;23.20;79.10;;;;;;5001591;28;20597;-70
2022/05/24 09:58:36;;;;;;;1.85;1.20;;;23.20;79.10;;;;;;4997440;28;20030;-70
2022/05/24 10:01:04;;;;;;;3.55;1.75;;;23.20;79.00;;;;;;5013032;28;20026;-70
2022/05/24 10:03:37;;;;;;;1.52;1.13;;;23.30;78.00;;;;;;5015306;28;20041;-70
2022/05/24 10:06:20;;;;;;;2.83;1.40;;;23.30;77.40;;;;;;5013320;28;20512;-70
2022/05/24 10:08:59;;;;;;;3.85;2.00;;;23.40;76.60;;;;;;5003172;28;20050;-73
2022/05/24 10:11:50;;;;;;;2.33;1.73;;;23.40;76.70;;;;;;5019756;28;20026;-71
2022/05/24 10:14:34;;;;;;;2.67;1.30;;;23.50;76.50;;;;;;4998521;28;20061;-72
2022/05/24 10:17:32;;;;;;;2.88;1.73;;;23.60;76.30;;;;;;5007394;28;20042;-69
2022/05/24 10:20:01;;;;;;;2.33;1.58;;;23.70;75.70;;;;;;5002086;28;20026;-69
2022/05/24 10:23:12;;;;;;;2.88;1.67;;;23.80;74.70;;;;;;4994697;28;20151;-70
2022/05/24 10:25:47;;;;;;;1.67;1.20;;;23.90;75.40;;;;;;5012502;28;20112;-70
2022/05/24 10:28:57;;;;;;;2.88;1.15;;;23.90;74.20;;;;;;4999249;28;20025;-69
2022/05/24 10:31:43;;;;;;;2.60;0.90;;;23.90;74.50;;;;;;5019026;28;20481;-69
2022/05/24 10:40:51;;;;;;;2.03;1.40;;;23.80;72.90;;;;;;4997051;28;20399;-69
2022/05/24 10:43:41;;;;;;;1.60;1.30;;;23.80;73.00;;;;;;5012501;28;20033;-70
2022/05/24 10:46:13;;;;;;;2.13;1.40;;;23.90;72.90;;;;;;5012296;28;20129;-71
2022/05/24 10:49:01;;;;;;;2.50;1.60;;;23.90;73.20;;;;;;5018516;28;20049;-71
2022/05/24 10:51:40;;;;;;;2.60;1.65;;;24.00;73.60;;;;;;5016202;28;20027;-69
2022/05/24 10:54:21;;;;;;;1.90;1.40;;;24.00;72.00;;;;;;5019362;28;20119;-70
2022/05/24 10:56:52;;;;;;;1.25;1.15;;;24.10;71.70;;;;;;5020898;28;20031;-73
2022/05/24 10:59:55;;;;;;;2.35;1.35;;;24.20;71.70;;;;;;5022337;28;20396;-71
2022/05/24 11:02:29;;;;;;;1.88;1.27;;;24.30;71.80;;;;;;5018357;28;20378;-71
2022/05/24 11:05:18;;;;;;;2.58;1.50;;;24.40;71.00;;;;;;5031061;28;20592;-69
2022/05/24 11:07:48;;;;;;;2.28;1.48;;;24.50;70.90;;;;;;5007485;28;20034;-70
2022/05/24 11:10:22;;;;;;;2.25;1.55;;;24.50;70.80;;;;;;5010906;28;20405;-68
2022/05/24 11:12:50;;;;;;;;;;;24.50;71.20;;;;;;4993900;28;20034;-70
2022/05/24 11:15:34;;;;;;;1.85;1.40;;;24.60;71.30;;;;;;4998015;28;20621;-69
2022/05/24 11:18:11;;;;;;;2.15;1.40;;;24.60;70.40;;;;;;4996458;28;20069;-70
2022/05/24 11:20:43;;;;;;;3.47;2.08;;;24.50;69.90;;;;;;5006685;28;20390;-68
2022/05/24 11:23:17;;;;;;;2.53;1.95;;;24.50;69.70;;;;;;5002709;28;20037;-68
2022/05/24 11:26:15;;;;;;;2.20;1.40;;;24.50;69.60;;;;;;5024062;28;20421;-69
2022/05/24 11:28:47;;;;;;;4.40;2.70;;;24.50;70.00;;;;;;5001114;28;20035;-69
2022/05/24 11:31:23;;;;;;;4.50;2.88;;;24.60;69.40;;;;;;5014420;28;20489;-70
2022/05/24 11:33:51;;;;;;;1.70;1.50;;;24.50;69.60;;;;;;4999221;28;20038;-68
2022/05/24 11:36:41;;;;;;;2.28;1.40;;;24.60;69.70;;;;;;5008656;28;20626;-70
2022/05/24 11:39:24;;;;;;;2.35;1.63;;;24.60;69.60;;;;;;4997065;28;20105;-70
2022/05/24 11:42:10;;;;;;;3.70;1.50;;;24.70;69.00;;;;;;5005596;28;20457;-70
2022/05/24 11:44:37;;;;;;;2.00;1.50;;;24.80;69.60;;;;;;4996344;28;20030;-70
2022/05/24 11:47:04;;;;;;;2.10;1.60;;;24.90;69.60;;;;;;4995595;28;20595;-70
2022/05/24 11:49:29;;;;;;;1.65;1.40;;;24.90;69.20;;;;;;4993504;28;20422;-70
2022/05/24 11:51:57;;;;;;;1.58;1.17;;;25.00;68.80;;;;;;5013103;28;20026;-69
2022/05/24 11:54:23;;;;;;;2.25;1.50;;;25.00;68.10;;;;;;5014626;28;20550;-70
2022/05/24 11:57:16;;;;;;;1.92;1.42;;;25.00;68.40;;;;;;5004670;28;20066;-70
2022/05/24 11:59:49;;;;;;;2.67;1.60;;;25.00;68.50;;;;;;5003461;28;20034;-70
2022/05/24 12:02:25;;;;;;;2.33;1.50;;;25.00;68.20;;;;;;5014230;28;20041;-70
2022/05/24 12:07:55;;;;;;;2.20;1.63;;;25.00;68.00;;;;;;5011597;28;20030;-70
2022/05/24 12:10:21;;;;;;;2.35;1.40;;;25.00;68.40;;;;;;5013004;28;20050;-70
2022/05/24 12:12:53;;;;;;;2.50;1.88;;;25.10;68.00;;;;;;5008818;28;20040;-70
2022/05/24 12:15:29;;;;;;;2.30;1.52;;;25.10;68.10;;;;;;5000123;28;20038;-69
2022/05/24 12:17:58;;;;;;;3.72;1.92;;;25.30;68.60;;;;;;5000709;28;20030;-70
2022/05/24 12:20:34;;;;;;;2.92;1.60;;;25.30;67.90;;;;;;5004040;28;20037;-70
2022/05/24 12:23:29;;;;;;;2.90;1.80;;;25.40;68.20;;;;;;5000961;28;20038;-69
2022/05/24 12:26:12;;;;;;;2.47;1.73;;;25.40;67.40;;;;;;5005634;28;20048;-70
2022/05/24 12:28:38;;;;;;;2.92;1.83;;;25.40;67.20;;;;;;4998013;28;20049;-70
2022/05/24 12:31:12;;;;;;;2.00;1.50;;;25.30;66.90;;;;;;5005639;28;20037;-70
2022/05/24 12:33:46;;;;;;;2.95;1.92;;;25.30;67.00;;;;;;5011131;28;20025;-70
2022/05/24 12:36:32;;;;;;;3.20;2.15;;;25.10;66.60;;;;;;5005656;28;20029;-70
2022/05/24 12:39:14;;;;;;;2.15;1.63;;;25.10;66.80;;;;;;4995785;28;20026;-70
2022/05/24 12:41:54;;;;;;;3.38;1.77;;;24.90;66.50;;;;;;4999446;28;20485;-70
2022/05/24 12:44:25;;;;;;;3.25;1.65;;;24.80;66.30;;;;;;4991672;28;20045;-71
2022/05/24 12:47:02;;;;;;;3.78;2.00;;;24.70;66.20;;;;;;5010576;28;20176;-71
2022/05/24 12:49:31;;;;;;;2.67;1.98;;;24.60;66.10;;;;;;4991835;28;20125;-71
2022/05/24 12:52:12;;;;;;;2.85;1.80;;;24.50;66.10;;;;;;4996212;28;20104;-71
2022/05/24 12:54:49;;;;;;;4.35;1.88;;;24.50;66.40;;;;;;5000575;28;20038;-70
2022/05/24 12:57:22;;;;;;;3.67;2.10;;;24.70;66.80;;;;;;4997321;28;20033;-70
2022/05/24 13:00:01;;;;;;;3.22;2.20;;;24.80;67.20;;;;;;5010858;28;20018;-70
2022/05/24 13:02:37;;;;;;;2.42;1.70;;;24.90;67.10;;;;;;5007491;28;20513;-70
2022/05/24 13:05:24;;;;;;;2.92;2.50;;;25.20;67.10;;;;;;5013073;28;20113;-70
2022/05/24 13:07:56;;;;;;;3.40;1.80;;;25.50;66.50;;;;;;5001922;28;20482;-70
2022/05/24 13:10:25;;;;;;;2.67;1.98;;;25.70;66.20;;;;;;5006426;28;20042;-70
2022/05/24 13:13:17;;;;;;;3.72;1.67;;;25.80;66.20;;;;;;5003944;28;20428;-70
2022/05/24 13:15:50;;;;;;;2.47;1.95;;;25.80;66.10;;;;;;4999469;28;20039;-70
2022/05/24 13:18:20;;;;;;;2.75;1.85;;;25.80;66.20;;;;;;5010847;28;20445;-70
2022/05/24 13:20:50;;;;;;;4.00;2.08;;;25.80;66.00;;;;;;5009022;28;20052;-71
2022/05/24 13:23:15;;;;;;;2.50;2.10;;;25.80;65.80;;;;;;4993873;28;20097;-71
2022/05/24 13:25:51;;;;;;;2.17;1.63;;;25.80;65.50;;;;;;4996413;28;20026;-71
2022/05/24 13:28:43;;;;;;;2.03;1.75;;;25.80;65.50;;;;;;4997649;28;20034;-71
2022/05/24 13:34:11;;;;;;;2.35;1.65;;;25.60;64.50;;;;;;4995720;28;20045;-70
2022/05/24 13:36:53;;;;;;;3.55;1.88;;;25.50;64.50;;;;;;5025065;28;20034;-71
2022/05/24 13:39:45;;;;;;;2.22;1.83;;;25.50;64.60;;;;;;5005637;28;20080;-71
2022/05/24 13:42:20;;;;;;;3.78;1.98;;;25.40;64.30;;;;;;5011680;28;20027;-67
2022/05/24 13:45:26;;;;;;;3.38;1.90;;;25.30;63.80;;;;;;4995771;28;20508;-67
2022/05/24 13:47:57;;;;;;;3.13;1.85;;;25.20;63.40;;;;;;5010216;28;20069;-71
2022/05/24 13:50:36;;;;;;;3.30;2.03;;;25.10;63.50;;;;;;5001495;28;20021;-67